sensor_id;sensor_type;location;lat;lon;timestamp;pressure;altitude;pressure_sealevel;temperature;humidity
28448;BME280;15675;52.870;-1.416;2023-04-01T00:02:00;99448.75;;;9.81;100.00
28448;BME280;15675;52.870;-1.416;2023-04-01T00:04:25;99445.78;;;9.42;100.00
28448;BME280;15675;52.870;-1.416;2023-04-01T00:06:51;99455.91;;;9.62;100.00
28448;BME280;15675;52.870;-1.416;2023-04-01T00:09:17;99455.66;;;9.82;100.00
28448;BME280;15675;52.870;-1.416;2023-04-01T00:11:43;99459.25;;;9.71;100.00
28448;BME280;15675;52.870;-1.416;2023-04-01T00:14:11;99461.56;;;9.18;100.00
28448;BME280;15675;52.870;-1.416;2023-04-01T00:16:36;99456.25;;;9.31;100.00
28448;BME280;15675;52.870;-1.416;2023-04-01T00:19:02;99464.66;;;9.54;100.00
28448;BME280;15675;52.870;-1.416;2023-04-01T00:21:28;99462.91;;;9.54;100.00
28448;BME280;15675;52.870;-1.416;2023-04-01T00:23:53;99475.59;;;9.76;100.00
28448;BME280;15675;52.870;-1.416;2023-04-01T00:26:20;99481.91;;;9.53;100.00
28448;BME280;15675;52.870;-1.416;2023-04-01T00:28:47;99495.22;;;9.21;100.00
28448;BME280;15675;52.870;-1.416;2023-04-01T00:31:13;99485.69;;;9.23;100.00
28448;BME280;15675;52.870;-1.416;2023-04-01T00:33:40;99483.22;;;9.15;100.00
28448;BME280;15675;52.870;-1.416;2023-04-01T00:36:08;99496.19;;;9.09;100.00
28448;BME280;15675;52.870;-1.416;2023-04-01T00:38:34;99491.88;;;9.11;100.00
28448;BME280;15675;52.870;-1.416;2023-04-01T00:40:59;99494.56;;;8.98;100.00
28448;BME280;15675;52.870;-1.416;2023-04-01T00:43:25;99485.81;;;9.10;100.00
28448;BME280;15675;52.870;-1.416;2023-04-01T00:45:51;99482.88;;;9.44;100.00
28448;BME280;15675;52.870;-1.416;2023-04-01T00:48:18;99491.53;;;9.42;100.00
28448;BME280;15675;52.870;-1.416;2023-04-01T00:50:50;99496.88;;;9.25;100.00
28448;BME280;15675;52.870;-1.416;2023-04-01T00:53:18;99498.44;;;9.43;100.00
28448;BME280;15675;52.870;-1.416;2023-04-01T00:55:50;99492.50;;;9.33;100.00
28448;BME280;15675;52.870;-1.416;2023-04-01T00:58:21;99486.31;;;9.46;100.00
28448;BME280;15675;52.870;-1.416;2023-04-01T01:00:50;99508.88;;;9.37;100.00
28448;BME280;15675;52.870;-1.416;2023-04-01T01:03:16;99497.44;;;9.55;100.00
28448;BME280;15675;52.870;-1.416;2023-04-01T01:06:07;99505.06;;;9.68;100.00
28448;BME280;15675;52.870;-1.416;2023-04-01T01:08:39;99503.50;;;9.55;100.00
28448;BME280;15675;52.870;-1.416;2023-04-01T01:11:07;99505.63;;;9.14;100.00
28448;BME280;15675;52.870;-1.416;2023-04-01T01:13:43;99512.25;;;9.45;100.00
28448;BME280;15675;52.870;-1.416;2023-04-01T01:16:22;99513.78;;;9.60;100.00
28448;BME280;15675;52.870;-1.416;2023-04-01T01:18:56;99515.00;;;9.29;100.00
28448;BME280;15675;52.870;-1.416;2023-04-01T01:21:42;99514.00;;;9.40;100.00
28448;BME280;15675;52.870;-1.416;2023-04-01T01:27:11;99511.41;;;9.40;100.00
28448;BME280;15675;52.870;-1.416;2023-04-01T01:37:58;99536.75;;;9.10;100.00
28448;BME280;15675;52.870;-1.416;2023-04-01T01:40:26;99540.81;;;9.36;100.00
28448;BME280;15675;52.870;-1.416;2023-04-01T01:42:56;99542.88;;;9.00;100.00
28448;BME280;15675;52.870;-1.416;2023-04-01T01:45:24;99539.25;;;9.21;100.00
28448;BME280;15675;52.870;-1.416;2023-04-01T01:47:52;99551.50;;;9.00;100.00
28448;BME280;15675;52.870;-1.416;2023-04-01T01:50:20;99559.50;;;8.71;100.00
28448;BME280;15675;52.870;-1.416;2023-04-01T01:52:47;99552.47;;;8.82;100.00
28448;BME280;15675;52.870;-1.416;2023-04-01T01:55:29;99558.56;;;8.78;100.00
28448;BME280;15675;52.870;-1.416;2023-04-01T01:57:58;99560.28;;;8.77;100.00
28448;BME280;15675;52.870;-1.416;2023-04-01T02:00:25;99557.66;;;8.87;100.00
28448;BME280;15675;52.870;-1.416;2023-04-01T02:02:52;99574.78;;;9.02;100.00
28448;BME280;15675;52.870;-1.416;2023-04-01T02:05:25;99569.56;;;9.08;100.00
28448;BME280;15675;52.870;-1.416;2023-04-01T02:08:05;99570.34;;;9.14;100.00
28448;BME280;15675;52.870;-1.416;2023-04-01T02:10:35;99577.25;;;9.15;100.00
28448;BME280;15675;52.870;-1.416;2023-04-01T02:13:09;99576.22;;;9.37;100.00
28448;BME280;15675;52.870;-1.416;2023-04-01T02:15:42;99578.91;;;9.23;100.00
28448;BME280;15675;52.870;-1.416;2023-04-01T02:18:12;99584.13;;;9.18;100.00
28448;BME280;15675;52.870;-1.416;2023-04-01T02:20:38;99578.19;;;9.07;100.00
28448;BME280;15675;52.870;-1.416;2023-04-01T02:23:04;99589.47;;;8.98;100.00
28448;BME280;15675;52.870;-1.416;2023-04-01T02:25:35;99586.56;;;9.37;100.00
28448;BME280;15675;52.870;-1.416;2023-04-01T02:28:04;99599.09;;;8.84;100.00
28448;BME280;15675;52.870;-1.416;2023-04-01T02:30:32;99595.38;;;9.15;100.00
28448;BME280;15675;52.870;-1.416;2023-04-01T02:32:59;99596.41;;;8.93;100.00
28448;BME280;15675;52.870;-1.416;2023-04-01T02:35:25;99591.31;;;8.84;100.00
28448;BME280;15675;52.870;-1.416;2023-04-01T02:37:53;99595.41;;;9.12;100.00
28448;BME280;15675;52.870;-1.416;2023-04-01T02:40:20;99599.09;;;8.77;100.00
28448;BME280;15675;52.870;-1.416;2023-04-01T02:42:45;99603.16;;;9.14;100.00
28448;BME280;15675;52.870;-1.416;2023-04-01T02:45:11;99596.53;;;8.74;100.00
28448;BME280;15675;52.870;-1.416;2023-04-01T02:47:37;99610.31;;;8.81;100.00
28448;BME280;15675;52.870;-1.416;2023-04-01T02:50:03;99605.03;;;8.92;100.00
28448;BME280;15675;52.870;-1.416;2023-04-01T02:52:29;99611.09;;;8.92;100.00
28448;BME280;15675;52.870;-1.416;2023-04-01T02:54:56;99609.28;;;9.04;100.00
28448;BME280;15675;52.870;-1.416;2023-04-01T02:57:22;99608.72;;;8.58;100.00
28448;BME280;15675;52.870;-1.416;2023-04-01T02:59:48;99613.59;;;9.00;100.00
28448;BME280;15675;52.870;-1.416;2023-04-01T03:02:13;99624.00;;;8.97;100.00
28448;BME280;15675;52.870;-1.416;2023-04-01T03:04:39;99619.50;;;9.19;100.00
28448;BME280;15675;52.870;-1.416;2023-04-01T03:07:05;99623.13;;;8.95;100.00
28448;BME280;15675;52.870;-1.416;2023-04-01T03:09:31;99623.16;;;8.96;100.00
28448;BME280;15675;52.870;-1.416;2023-04-01T03:11:56;99626.47;;;9.14;100.00
28448;BME280;15675;52.870;-1.416;2023-04-01T03:14:22;99633.22;;;9.29;100.00
28448;BME280;15675;52.870;-1.416;2023-04-01T03:16:47;99638.13;;;9.61;100.00
28448;BME280;15675;52.870;-1.416;2023-04-01T03:19:13;99639.34;;;9.19;100.00
28448;BME280;15675;52.870;-1.416;2023-04-01T03:21:39;99643.75;;;9.07;100.00
28448;BME280;15675;52.870;-1.416;2023-04-01T03:24:04;99643.84;;;8.95;100.00
28448;BME280;15675;52.870;-1.416;2023-04-01T03:26:31;99635.91;;;9.18;100.00
28448;BME280;15675;52.870;-1.416;2023-04-01T03:28:57;99638.56;;;9.09;100.00
28448;BME280;15675;52.870;-1.416;2023-04-01T03:31:22;99648.69;;;9.40;100.00
28448;BME280;15675;52.870;-1.416;2023-04-01T03:33:48;99645.38;;;9.19;100.00
28448;BME280;15675;52.870;-1.416;2023-04-01T03:36:14;99649.03;;;8.90;100.00
28448;BME280;15675;52.870;-1.416;2023-04-01T03:38:40;99651.56;;;9.03;100.00
28448;BME280;15675;52.870;-1.416;2023-04-01T03:41:06;99637.19;;;8.52;100.00
28448;BME280;15675;52.870;-1.416;2023-04-01T03:43:32;99643.91;;;8.84;100.00
28448;BME280;15675;52.870;-1.416;2023-04-01T03:45:58;99655.72;;;9.24;100.00
28448;BME280;15675;52.870;-1.416;2023-04-01T03:48:24;99656.78;;;8.95;100.00
28448;BME280;15675;52.870;-1.416;2023-04-01T03:50:50;99658.56;;;8.90;100.00
28448;BME280;15675;52.870;-1.416;2023-04-01T03:53:16;99668.03;;;8.91;100.00
28448;BME280;15675;52.870;-1.416;2023-04-01T03:55:42;99667.91;;;9.11;100.00
28448;BME280;15675;52.870;-1.416;2023-04-01T03:58:08;99669.66;;;9.06;100.00
28448;BME280;15675;52.870;-1.416;2023-04-01T04:00:33;99673.22;;;8.86;100.00
28448;BME280;15675;52.870;-1.416;2023-04-01T04:02:59;99672.44;;;8.73;100.00
28448;BME280;15675;52.870;-1.416;2023-04-01T04:05:26;99667.22;;;8.81;100.00
28448;BME280;15675;52.870;-1.416;2023-04-01T04:07:52;99657.88;;;8.49;100.00
28448;BME280;15675;52.870;-1.416;2023-04-01T04:10:18;99668.16;;;8.66;100.00
28448;BME280;15675;52.870;-1.416;2023-04-01T04:12:44;99668.84;;;8.97;100.00
28448;BME280;15675;52.870;-1.416;2023-04-01T04:15:10;99683.69;;;8.64;100.00
28448;BME280;15675;52.870;-1.416;2023-04-01T04:17:36;99671.63;;;8.63;100.00
28448;BME280;15675;52.870;-1.416;2023-04-01T04:20:02;99683.75;;;8.51;100.00
28448;BME280;15675;52.870;-1.416;2023-04-01T04:22:28;99689.81;;;8.51;100.00
28448;BME280;15675;52.870;-1.416;2023-04-01T04:24:53;99687.94;;;8.73;100.00
28448;BME280;15675;52.870;-1.416;2023-04-01T04:27:19;99687.16;;;8.67;100.00
28448;BME280;15675;52.870;-1.416;2023-04-01T04:29:45;99688.72;;;8.94;100.00
28448;BME280;15675;52.870;-1.416;2023-04-01T04:32:10;99696.53;;;8.83;100.00
28448;BME280;15675;52.870;-1.416;2023-04-01T04:34:36;99690.59;;;8.64;100.00
28448;BME280;15675;52.870;-1.416;2023-04-01T04:37:02;99699.16;;;8.80;100.00
28448;BME280;15675;52.870;-1.416;2023-04-01T04:39:27;99704.97;;;9.14;100.00
28448;BME280;15675;52.870;-1.416;2023-04-01T04:41:53;99698.22;;;8.96;100.00
28448;BME280;15675;52.870;-1.416;2023-04-01T04:44:18;99710.28;;;8.93;100.00
28448;BME280;15675;52.870;-1.416;2023-04-01T04:46:44;99712.13;;;8.74;100.00
28448;BME280;15675;52.870;-1.416;2023-04-01T04:49:09;99708.66;;;8.70;100.00
28448;BME280;15675;52.870;-1.416;2023-04-01T04:51:35;99710.41;;;8.70;100.00
28448;BME280;15675;52.870;-1.416;2023-04-01T04:54:04;99725.09;;;8.61;100.00
28448;BME280;15675;52.870;-1.416;2023-04-01T04:56:31;99732.09;;;8.24;100.00
28448;BME280;15675;52.870;-1.416;2023-04-01T04:58:57;99727.81;;;8.04;100.00
28448;BME280;15675;52.870;-1.416;2023-04-01T05:01:23;99725.22;;;8.09;100.00
28448;BME280;15675;52.870;-1.416;2023-04-01T05:03:49;99730.41;;;7.75;100.00
28448;BME280;15675;52.870;-1.416;2023-04-01T05:06:16;99744.22;;;7.92;100.00
28448;BME280;15675;52.870;-1.416;2023-04-01T05:08:42;99752.81;;;7.88;100.00
28448;BME280;15675;52.870;-1.416;2023-04-01T05:11:14;99743.31;;;8.10;100.00
28448;BME280;15675;52.870;-1.416;2023-04-01T05:13:41;99750.16;;;8.30;100.00
28448;BME280;15675;52.870;-1.416;2023-04-01T05:16:11;99756.19;;;8.30;100.00
28448;BME280;15675;52.870;-1.416;2023-04-01T05:18:37;99750.13;;;8.53;100.00
28448;BME280;15675;52.870;-1.416;2023-04-01T05:21:03;99765.69;;;8.30;100.00
28448;BME280;15675;52.870;-1.416;2023-04-01T05:23:30;99756.22;;;8.23;100.00
28448;BME280;15675;52.870;-1.416;2023-04-01T05:25:56;99767.41;;;8.20;100.00
28448;BME280;15675;52.870;-1.416;2023-04-01T05:28:22;99771.69;;;8.40;100.00
28448;BME280;15675;52.870;-1.416;2023-04-01T05:30:48;99779.47;;;8.37;100.00
28448;BME280;15675;52.870;-1.416;2023-04-01T05:33:14;99777.72;;;8.57;100.00
28448;BME280;15675;52.870;-1.416;2023-04-01T05:35:40;99773.44;;;8.33;100.00
28448;BME280;15675;52.870;-1.416;2023-04-01T05:38:06;99777.72;;;8.40;100.00
28448;BME280;15675;52.870;-1.416;2023-04-01T05:40:32;99785.50;;;8.23;100.00
28448;BME280;15675;52.870;-1.416;2023-04-01T05:42:58;99778.66;;;7.96;100.00
28448;BME280;15675;52.870;-1.416;2023-04-01T05:45:24;99777.78;;;7.89;100.00
28448;BME280;15675;52.870;-1.416;2023-04-01T05:47:49;99782.09;;;7.84;100.00
28448;BME280;15675;52.870;-1.416;2023-04-01T05:50:15;99780.38;;;7.95;100.00
28448;BME280;15675;52.870;-1.416;2023-04-01T05:52:41;99783.81;;;7.81;100.00
28448;BME280;15675;52.870;-1.416;2023-04-01T05:55:06;99798.44;;;7.72;100.00
28448;BME280;15675;52.870;-1.416;2023-04-01T05:57:32;99798.44;;;7.69;100.00
28448;BME280;15675;52.870;-1.416;2023-04-01T05:59:58;99804.47;;;7.59;100.00
28448;BME280;15675;52.870;-1.416;2023-04-01T06:02:23;99806.16;;;7.54;100.00
28448;BME280;15675;52.870;-1.416;2023-04-01T06:04:49;99820.81;;;7.42;100.00
28448;BME280;15675;52.870;-1.416;2023-04-01T06:07:16;99812.22;;;7.81;100.00
28448;BME280;15675;52.870;-1.416;2023-04-01T06:10:12;99825.16;;;7.96;100.00
28448;BME280;15675;52.870;-1.416;2023-04-01T06:12:53;99828.59;;;7.97;100.00
28448;BME280;15675;52.870;-1.416;2023-04-01T06:26:33;99851.00;;;7.85;100.00
28448;BME280;15675;52.870;-1.416;2023-04-01T06:32:10;99863.91;;;7.74;100.00
28448;BME280;15675;52.870;-1.416;2023-04-01T06:34:59;99863.09;;;8.14;100.00
28448;BME280;15675;52.870;-1.416;2023-04-01T06:37:57;99867.34;;;7.72;100.00
28448;BME280;15675;52.870;-1.416;2023-04-01T06:46:29;99883.69;;;7.55;100.00
28448;BME280;15675;52.870;-1.416;2023-04-01T06:49:21;99888.91;;;8.02;100.00
28448;BME280;15675;52.870;-1.416;2023-04-01T06:54:38;99894.97;;;8.55;100.00
28448;BME280;15675;52.870;-1.416;2023-04-01T06:59:51;99898.41;;;8.38;100.00
28448;BME280;15675;52.870;-1.416;2023-04-01T07:05:24;99900.97;;;7.80;100.00
28448;BME280;15675;52.870;-1.416;2023-04-01T07:07:57;99917.31;;;7.74;100.00
28448;BME280;15675;52.870;-1.416;2023-04-01T07:13:34;99907.88;;;8.04;100.00
28448;BME280;15675;52.870;-1.416;2023-04-01T07:16:05;99913.06;;;8.33;100.00
28448;BME280;15675;52.870;-1.416;2023-04-01T07:21:13;99920.81;;;8.32;100.00
28448;BME280;15675;52.870;-1.416;2023-04-01T07:23:44;99926.84;;;8.23;100.00
28448;BME280;15675;52.870;-1.416;2023-04-01T07:26:17;99921.66;;;8.07;100.00
28448;BME280;15675;52.870;-1.416;2023-04-01T07:28:43;99932.88;;;8.19;100.00
28448;BME280;15675;52.870;-1.416;2023-04-01T07:31:23;99926.91;;;8.55;100.00
28448;BME280;15675;52.870;-1.416;2023-04-01T07:34:01;99931.16;;;8.27;100.00
28448;BME280;15675;52.870;-1.416;2023-04-01T07:36:39;99941.50;;;8.22;100.00
28448;BME280;15675;52.870;-1.416;2023-04-01T08:01:02;99983.75;;;8.35;100.00
28448;BME280;15675;52.870;-1.416;2023-04-01T08:12:11;99991.56;;;8.71;100.00
28448;BME280;15675;52.870;-1.416;2023-04-01T08:15:26;99996.72;;;8.64;100.00
28448;BME280;15675;52.870;-1.416;2023-04-01T08:22:42;100007.09;;;8.78;100.00
28448;BME280;15675;52.870;-1.416;2023-04-01T08:25:17;100012.25;;;8.91;100.00
28448;BME280;15675;52.870;-1.416;2023-04-01T08:27:49;100017.44;;;9.08;100.00
28448;BME280;15675;52.870;-1.416;2023-04-01T08:32:48;100024.31;;;9.04;100.00
28448;BME280;15675;52.870;-1.416;2023-04-01T08:35:34;100018.28;;;8.73;100.00
28448;BME280;15675;52.870;-1.416;2023-04-01T08:38:11;100033.81;;;8.53;100.00
28448;BME280;15675;52.870;-1.416;2023-04-01T08:54:46;100046.72;;;9.41;100.00
28448;BME280;15675;52.870;-1.416;2023-04-01T08:57:25;100054.53;;;9.22;100.00
28448;BME280;15675;52.870;-1.416;2023-04-01T09:00:31;100063.16;;;9.04;100.00
28448;BME280;15675;52.870;-1.416;2023-04-01T09:28:52;100082.84;;;9.90;100.00
28448;BME280;15675;52.870;-1.416;2023-04-01T09:37:19;100097.66;;;9.25;100.00
28448;BME280;15675;52.870;-1.416;2023-04-01T09:40:14;100095.94;;;9.07;100.00
28448;BME280;15675;52.870;-1.416;2023-04-01T09:45:28;100090.78;;;9.08;100.00
28448;BME280;15675;52.870;-1.416;2023-04-01T09:59:19;100112.34;;;9.09;100.00
28448;BME280;15675;52.870;-1.416;2023-04-01T10:01:54;100110.59;;;9.22;100.00
28448;BME280;15675;52.870;-1.416;2023-04-01T10:04:59;100118.38;;;9.36;100.00
28448;BME280;15675;52.870;-1.416;2023-04-01T10:13:25;100130.47;;;9.27;100.00
28448;BME280;15675;52.870;-1.416;2023-04-01T10:18:37;100147.72;;;9.27;100.00
28448;BME280;15675;52.870;-1.416;2023-04-01T11:11:47;100206.44;;;9.66;100.00
28448;BME280;15675;52.870;-1.416;2023-04-01T11:22:50;100220.19;;;10.10;98.77
28448;BME280;15675;52.870;-1.416;2023-04-01T11:25:23;100217.59;;;10.09;97.12
28448;BME280;15675;52.870;-1.416;2023-04-01T11:33:39;100236.63;;;10.14;96.06
28448;BME280;15675;52.870;-1.416;2023-04-01T11:44:14;100245.31;;;9.83;94.96
28448;BME280;15675;52.870;-1.416;2023-04-01T12:00:44;100289.38;;;10.07;91.32
28448;BME280;15675;52.870;-1.416;2023-04-01T12:09:07;100298.00;;;9.98;91.14
28448;BME280;15675;52.870;-1.416;2023-04-01T12:19:56;100301.44;;;10.05;90.52
28448;BME280;15675;52.870;-1.416;2023-04-01T12:36:52;100338.63;;;9.88;84.00
28448;BME280;15675;52.870;-1.416;2023-04-01T12:39:37;100348.16;;;10.06;83.30
28448;BME280;15675;52.870;-1.416;2023-04-01T12:42:44;100351.59;;;9.94;85.51
28448;BME280;15675;52.870;-1.416;2023-04-01T12:45:23;100351.50;;;9.36;89.94
28448;BME280;15675;52.870;-1.416;2023-04-01T12:55:38;100358.50;;;9.92;85.63
28448;BME280;15675;52.870;-1.416;2023-04-01T13:00:58;100361.09;;;10.11;82.62
28448;BME280;15675;52.870;-1.416;2023-04-01T13:06:20;100367.94;;;10.92;83.46
28448;BME280;15675;52.870;-1.416;2023-04-01T13:20:29;100392.22;;;10.32;83.30
28448;BME280;15675;52.870;-1.416;2023-04-01T13:25:32;100390.47;;;10.68;82.68
28448;BME280;15675;52.870;-1.416;2023-04-01T13:28:18;100392.13;;;10.96;79.52
28448;BME280;15675;52.870;-1.416;2023-04-01T13:33:50;100405.22;;;10.63;76.72
28448;BME280;15675;52.870;-1.416;2023-04-01T13:36:28;100406.00;;;10.85;76.85
28448;BME280;15675;52.870;-1.416;2023-04-01T13:41:54;100413.81;;;10.84;75.90
28448;BME280;15675;52.870;-1.416;2023-04-01T13:50:05;100416.41;;;10.87;78.07
28448;BME280;15675;52.870;-1.416;2023-04-01T13:55:35;100432.88;;;10.64;81.13
28448;BME280;15675;52.870;-1.416;2023-04-01T14:06:18;100438.94;;;10.42;81.95
28448;BME280;15675;52.870;-1.416;2023-04-01T14:11:45;100451.94;;;10.63;80.44
28448;BME280;15675;52.870;-1.416;2023-04-01T14:17:23;100465.69;;;10.13;79.77
28448;BME280;15675;52.870;-1.416;2023-04-01T14:20:21;100477.84;;;10.32;82.02
28448;BME280;15675;52.870;-1.416;2023-04-01T14:28:18;100482.16;;;10.26;82.65
28448;BME280;15675;52.870;-1.416;2023-04-01T14:31:15;100470.91;;;10.90;83.68
28448;BME280;15675;52.870;-1.416;2023-04-01T14:33:52;100487.38;;;10.77;82.60
28448;BME280;15675;52.870;-1.416;2023-04-01T14:39:33;100500.38;;;10.67;81.05
28448;BME280;15675;52.870;-1.416;2023-04-01T14:42:08;100499.50;;;10.58;80.40
28448;BME280;15675;52.870;-1.416;2023-04-01T14:45:22;100508.16;;;10.36;80.51
28448;BME280;15675;52.870;-1.416;2023-04-01T14:47:47;100520.25;;;10.53;80.61
28448;BME280;15675;52.870;-1.416;2023-04-01T14:50:21;100522.78;;;10.24;81.26
28448;BME280;15675;52.870;-1.416;2023-04-01T15:09:42;100549.69;;;10.58;81.36
28448;BME280;15675;52.870;-1.416;2023-04-01T15:18:30;100555.75;;;10.86;78.24
28448;BME280;15675;52.870;-1.416;2023-04-01T15:21:20;100554.88;;;11.01;77.83
28448;BME280;15675;52.870;-1.416;2023-04-01T15:33:06;100571.34;;;10.88;78.77
28448;BME280;15675;52.870;-1.416;2023-04-01T15:35:43;100581.72;;;10.94;77.11
28448;BME280;15675;52.870;-1.416;2023-04-01T15:38:40;100582.56;;;10.90;76.48
28448;BME280;15675;52.870;-1.416;2023-04-01T16:00:30;100619.81;;;10.94;77.65
28448;BME280;15675;52.870;-1.416;2023-04-01T16:03:12;100628.47;;;11.13;78.04
28448;BME280;15675;52.870;-1.416;2023-04-01T16:13:46;100655.28;;;10.90;80.40
28448;BME280;15675;52.870;-1.416;2023-04-01T16:16:49;100663.94;;;10.75;81.27
28448;BME280;15675;52.870;-1.416;2023-04-01T16:22:06;100660.44;;;10.68;82.73
28448;BME280;15675;52.870;-1.416;2023-04-01T16:25:13;100664.78;;;10.71;83.79
28448;BME280;15675;52.870;-1.416;2023-04-01T16:28:22;100667.41;;;10.93;84.81
28448;BME280;15675;52.870;-1.416;2023-04-01T16:31:07;100677.81;;;11.07;84.46
28448;BME280;15675;52.870;-1.416;2023-04-01T16:42:13;100685.63;;;11.50;83.14
28448;BME280;15675;52.870;-1.416;2023-04-01T16:44:52;100691.66;;;11.07;84.16
28448;BME280;15675;52.870;-1.416;2023-04-01T16:47:30;100689.03;;;10.73;86.25
28448;BME280;15675;52.870;-1.416;2023-04-01T16:50:23;100701.13;;;10.66;87.32
28448;BME280;15675;52.870;-1.416;2023-04-01T16:53:10;100708.06;;;10.75;88.41
28448;BME280;15675;52.870;-1.416;2023-04-01T16:58:18;100731.34;;;10.50;90.91
28448;BME280;15675;52.870;-1.416;2023-04-01T17:00:49;100716.75;;;10.94;91.51
28448;BME280;15675;52.870;-1.416;2023-04-01T17:03:26;100727.97;;;10.75;91.27
28448;BME280;15675;52.870;-1.416;2023-04-01T17:06:10;100722.72;;;10.61;92.48
28448;BME280;15675;52.870;-1.416;2023-04-01T17:11:27;100737.41;;;10.51;95.61
28448;BME280;15675;52.870;-1.416;2023-04-01T17:35:42;100784.25;;;10.82;98.62
28448;BME280;15675;52.870;-1.416;2023-04-01T17:38:13;100791.97;;;10.63;100.00
28448;BME280;15675;52.870;-1.416;2023-04-01T17:40:39;100791.97;;;10.65;100.00
28448;BME280;15675;52.870;-1.416;2023-04-01T17:43:22;100814.31;;;10.41;100.00
28448;BME280;15675;52.870;-1.416;2023-04-01T17:49:42;100834.81;;;10.07;100.00
28448;BME280;15675;52.870;-1.416;2023-04-01T17:52:35;100825.38;;;10.17;100.00
28448;BME280;15675;52.870;-1.416;2023-04-01T17:57:56;100852.00;;;9.93;100.00
28448;BME280;15675;52.870;-1.416;2023-04-01T18:00:55;100849.75;;;10.36;100.00
28448;BME280;15675;52.870;-1.416;2023-04-01T18:06:21;100860.06;;;10.30;100.00
28448;BME280;15675;52.870;-1.416;2023-04-01T18:19:10;100885.75;;;9.99;100.00
28448;BME280;15675;52.870;-1.416;2023-04-01T18:21:49;100890.91;;;9.94;100.00
28448;BME280;15675;52.870;-1.416;2023-04-01T18:27:16;100904.00;;;10.11;100.00
28448;BME280;15675;52.870;-1.416;2023-04-01T18:29:52;100917.72;;;9.93;100.00
28448;BME280;15675;52.870;-1.416;2023-04-01T18:38:07;100948.38;;;9.53;100.00
28448;BME280;15675;52.870;-1.416;2023-04-01T18:40:46;100949.47;;;9.74;100.00
28448;BME280;15675;52.870;-1.416;2023-04-01T18:46:24;100970.06;;;9.61;100.00
28448;BME280;15675;52.870;-1.416;2023-04-01T18:58:21;100995.31;;;9.78;100.00
28448;BME280;15675;52.870;-1.416;2023-04-01T19:00:58;101000.41;;;9.70;100.00
28448;BME280;15675;52.870;-1.416;2023-04-01T19:06:15;101001.84;;;9.46;100.00
28448;BME280;15675;52.870;-1.416;2023-04-01T19:08:44;101013.22;;;9.58;100.00
28448;BME280;15675;52.870;-1.416;2023-04-01T19:11:32;101008.31;;;9.81;100.00
28448;BME280;15675;52.870;-1.416;2023-04-01T19:22:18;101033.97;;;9.59;100.00
28448;BME280;15675;52.870;-1.416;2023-04-01T19:24:56;101050.09;;;9.38;100.00
28448;BME280;15675;52.870;-1.416;2023-04-01T19:32:41;101055.63;;;9.66;100.00
28448;BME280;15675;52.870;-1.416;2023-04-01T19:42:54;101070.78;;;10.02;100.00
28448;BME280;15675;52.870;-1.416;2023-04-01T19:45:42;101072.28;;;9.82;100.00
28448;BME280;15675;52.870;-1.416;2023-04-01T19:54:02;101091.69;;;9.47;100.00
28448;BME280;15675;52.870;-1.416;2023-04-01T19:56:47;101089.88;;;9.42;100.00
28448;BME280;15675;52.870;-1.416;2023-04-01T20:02:10;101096.47;;;9.82;
28448;BME280;15675;52.870;-1.416;2023-04-01T20:04:44;101114.00;;;10.02;100.00
28448;BME280;15675;52.870;-1.416;2023-04-01T20:07:48;101107.84;;;9.92;100.00
28448;BME280;15675;52.870;-1.416;2023-04-01T20:15:33;101115.00;;;9.47;100.00
28448;BME280;15675;52.870;-1.416;2023-04-01T20:18:05;101119.16;;;9.38;100.00
28448;BME280;15675;52.870;-1.416;2023-04-01T20:20:31;101131.00;;;9.78;100.00
28448;BME280;15675;52.870;-1.416;2023-04-01T20:23:35;101136.91;;;9.68;100.00
28448;BME280;15675;52.870;-1.416;2023-04-01T20:25:57;101141.88;;;9.53;100.00
28448;BME280;15675;52.870;-1.416;2023-04-01T20:28:32;101144.28;;;9.42;100.00
28448;BME280;15675;52.870;-1.416;2023-04-01T20:36:38;101157.22;;;9.42;100.00
28448;BME280;15675;52.870;-1.416;2023-04-01T20:49:41;101176.63;;;9.67;100.00
28448;BME280;15675;52.870;-1.416;2023-04-01T20:54:55;101201.50;;;9.54;100.00
28448;BME280;15675;52.870;-1.416;2023-04-01T20:57:45;101209.19;;;9.49;100.00
28448;BME280;15675;52.870;-1.416;2023-04-01T21:00:27;101207.69;;;9.64;100.00
28448;BME280;15675;52.870;-1.416;2023-04-01T21:03:45;101221.66;;;9.72;100.00
28448;BME280;15675;52.870;-1.416;2023-04-01T21:08:47;101227.06;;;9.32;100.00
28448;BME280;15675;52.870;-1.416;2023-04-01T21:11:31;101237.41;;;9.32;100.00
28448;BME280;15675;52.870;-1.416;2023-04-01T21:14:14;101234.91;;;9.37;100.00
28448;BME280;15675;52.870;-1.416;2023-04-01T21:22:29;101244.78;;;9.61;100.00
28448;BME280;15675;52.870;-1.416;2023-04-01T21:33:25;101252.34;;;8.98;100.00
28448;BME280;15675;52.870;-1.416;2023-04-01T22:00:38;101300.94;;;8.69;100.00
28448;BME280;15675;52.870;-1.416;2023-04-01T22:11:14;101314.53;;;9.00;100.00
28448;BME280;15675;52.870;-1.416;2023-04-01T22:14:08;101317.00;;;8.94;100.00
28448;BME280;15675;52.870;-1.416;2023-04-01T22:19:38;101327.69;;;9.11;100.00
28448;BME280;15675;52.870;-1.416;2023-04-01T22:22:18;101329.97;;;8.95;100.00
28448;BME280;15675;52.870;-1.416;2023-04-01T22:27:26;101339.00;;;8.73;100.00
28448;BME280;15675;52.870;-1.416;2023-04-01T22:57:02;101382.03;;;9.08;100.00
28448;BME280;15675;52.870;-1.416;2023-04-01T22:59:52;101387.16;;;8.65;100.00
28448;BME280;15675;52.870;-1.416;2023-04-01T23:05:30;101396.84;;;8.74;100.00
28448;BME280;15675;52.870;-1.416;2023-04-01T23:10:52;101405.00;;;9.33;100.00
28448;BME280;15675;52.870;-1.416;2023-04-01T23:13:25;101415.22;;;8.86;100.00
28448;BME280;15675;52.870;-1.416;2023-04-01T23:15:53;101425.19;;;8.33;100.00
28448;BME280;15675;52.870;-1.416;2023-04-01T23:18:34;101420.91;;;8.35;100.00
28448;BME280;15675;52.870;-1.416;2023-04-01T23:21:06;101432.44;;;8.46;100.00
28448;BME280;15675;52.870;-1.416;2023-04-01T23:24:10;101441.44;;;8.63;100.00
28448;BME280;15675;52.870;-1.416;2023-04-01T23:26:55;101437.38;;;8.37;100.00
28448;BME280;15675;52.870;-1.416;2023-04-01T23:29:24;101443.75;;;8.50;100.00
28448;BME280;15675;52.870;-1.416;2023-04-01T23:32:01;101448.94;;;8.18;100.00